OMAL/AAN METAR and TAF weather

Enter ICAO airport designator
Station Type Date Time Source
OMAL METAR 2019/02/20 23:00 UTC NOAA

OMAL 202300Z 01003KT CAVOK 13/09 Q1020 NOSIG


Station Type Date Time Source
OMAL Decoded METAR 2019/02/20 23:00 UTC NOAA

Al Ain International Airport, United Arab Emirates (OMAL) 24-16N 055-36E 262M
Feb 20, 2019 - 06:00 PM EST / 2019.02.20 2300 UTC
Wind: from the N (010 degrees) at 3 MPH (3 KT):0
Visibility: greater than 7 mile(s):0
Temperature: 55 F (13 C)
Dew Point: 48 F (9 C)
Relative Humidity: 76%
Pressure (altimeter): 30.12 in. Hg (1020 hPa)
ob: OMAL 202300Z 01003KT CAVOK 13/09 Q1020 NOSIG
cycle: 23

Station Type Date Time Source
OMAL TAF 2019/02/20 18:02 UTC NOAA

TAF OMAL 201700Z 2018/2200 29008KT 8000 FEW040
BECMG 2021/2023 VRB02KT PROB30
TEMPO 2101/2104 4000 HZ
BECMG 2106/2108 31010KT


Example: see airport list